Time;durP1;ratioP1;P1;durP2;ratioP2;P2;SDS_P1;SDS_P2;PMS_P1;PMS_P2;Temp;Humidity;BMP_temperature;BMP_pressure;BME280_temperature;BME280_humidity;BME280_pressure;Samples;Min_cycle;Max_cycle;Signal;HPM_P1;HPM_P2
2021/08/31 06:59:11;;;;;;;13.50;9.68;;;;;;;15.16;100.00;100977.88;2614504;36;20038;-61
2021/08/31 07:01:38;;;;;;;12.65;9.27;;;;;;;15.17;100.00;100972.75;2614954;36;20034;-61
2021/08/31 07:04:05;;;;;;;12.90;9.38;;;;;;;15.23;100.00;100977.97;2615063;31;20029;-59
2021/08/31 07:06:33;;;;;;;13.65;9.57;;;;;;;15.13;100.00;100983.88;2614536;36;20030;-59
2021/08/31 07:09:01;;;;;;;14.55;9.88;;;;;;;15.20;100.00;100975.34;2615297;36;20529;-61
2021/08/31 07:11:28;;;;;;;13.00;10.00;;;;;;;15.17;100.00;100984.78;2615808;31;20453;-61
2021/08/31 07:13:55;;;;;;;13.07;9.90;;;;;;;15.08;100.00;100982.13;2615133;36;20118;-61
2021/08/31 07:16:23;;;;;;;12.63;9.20;;;;;;;15.28;100.00;100985.78;2615710;31;20711;-62
2021/08/31 07:18:50;;;;;;;15.63;9.90;;;;;;;15.46;100.00;100995.44;2616102;31;20039;-61
2021/08/31 07:21:17;;;;;;;13.30;9.77;;;;;;;15.49;100.00;100985.16;2615102;36;20416;-58
2021/08/31 07:23:44;;;;;;;12.10;9.00;;;;;;;15.81;100.00;100989.75;2615226;31;20569;-62
2021/08/31 07:26:11;;;;;;;13.90;9.60;;;;;;;15.82;100.00;100994.09;2615666;31;20499;-59
2021/08/31 07:28:38;;;;;;;18.88;10.50;;;;;;;15.62;100.00;100997.34;2615424;31;20037;-60
2021/08/31 07:31:22;;;;;;;12.23;9.68;;;;;;;15.82;100.00;101004.44;2578902;36;2004585;-60
2021/08/31 07:33:50;;;;;;;13.70;9.57;;;;;;;15.63;100.00;101003.34;2615787;31;20030;-58
2021/08/31 07:36:23;;;;;;;11.93;9.50;;;;;;;15.97;100.00;101007.13;2615495;31;20031;-60
2021/08/31 07:38:53;;;;;;;16.80;9.68;;;;;;;16.19;100.00;100998.72;2614987;36;20034;-59
2021/08/31 07:41:20;;;;;;;12.43;8.93;;;;;;;16.11;100.00;100999.50;2615433;31;20038;-61
2021/08/31 07:43:48;;;;;;;11.40;9.25;;;;;;;16.13;100.00;101003.84;2615446;36;20389;-61
2021/08/31 07:46:15;;;;;;;12.48;8.57;;;;;;;16.62;100.00;101000.72;2614874;36;20100;-60
2021/08/31 07:48:43;;;;;;;13.77;8.85;;;;;;;16.75;100.00;101002.56;2615848;31;20026;-61
2021/08/31 07:51:11;;;;;;;10.80;8.25;;;;;;;17.12;100.00;101008.75;2615420;31;21127;-60
2021/08/31 07:53:39;;;;;;;10.98;8.68;;;;;;;17.00;100.00;101014.75;2615386;31;20622;-61
2021/08/31 07:56:07;;;;;;;10.80;7.18;;;;;;;17.26;100.00;101016.59;2615186;36;20435;-59
2021/08/31 07:58:34;;;;;;;10.77;7.72;;;;;;;17.11;100.00;101019.13;2614498;36;20046;-61
2021/08/31 08:01:02;;;;;;;10.18;8.02;;;;;;;17.31;100.00;101017.47;2614914;36;20044;-61
2021/08/31 08:03:30;;;;;;;7.80;6.95;;;;;;;16.97;100.00;101017.34;2615080;31;20034;-62
2021/08/31 08:05:57;;;;;;;8.25;7.10;;;;;;;17.20;100.00;101017.44;2614972;31;20030;-61
2021/08/31 08:08:26;;;;;;;10.45;7.57;;;;;;;17.26;100.00;101014.84;2614728;31;20619;-55
2021/08/31 08:10:53;;;;;;;8.80;7.35;;;;;;;17.27;100.00;101018.31;2615387;31;20454;-55
2021/08/31 08:13:21;;;;;;;8.88;7.18;;;;;;;17.50;100.00;101015.78;2614787;31;20040;-60
2021/08/31 08:15:48;;;;;;;11.27;7.20;;;;;;;18.19;100.00;101021.06;2614958;36;20038;-59
2021/08/31 08:18:15;;;;;;;10.27;6.88;;;;;;;18.25;100.00;101018.47;2614542;31;20041;-60
2021/08/31 08:20:43;;;;;;;10.15;7.43;;;;;;;18.38;100.00;101022.78;2615309;31;20120;-57
2021/08/31 08:23:12;;;;;;;8.55;6.68;;;;;;;18.48;100.00;101023.63;2614724;36;20555;-60
2021/08/31 08:25:40;;;;;;;10.98;7.65;;;;;;;17.87;100.00;101021.94;2614874;36;20031;-56
2021/08/31 08:28:20;;;;;;;9.20;7.35;;;;;;;17.94;100.00;101022.81;2615526;31;20034;-55
2021/08/31 08:30:50;;;;;;;9.93;6.45;;;;;;;18.08;100.00;101022.81;2615762;31;20037;-57
2021/08/31 08:33:20;;;;;;;11.82;7.30;;;;;;;18.35;100.00;101022.81;2614447;36;20034;-54
2021/08/31 08:35:48;;;;;;;9.57;6.80;;;;;;;18.54;100.00;101021.06;2614096;31;20030;-57
2021/08/31 08:38:16;;;;;;;7.93;7.10;;;;;;;18.75;100.00;101028.81;2613754;31;20081;-58
2021/08/31 08:40:44;;;;;;;10.18;6.80;;;;;;;18.57;100.00;101029.66;2613616;36;20057;-58
2021/08/31 08:43:16;;;;;;;7.63;6.82;;;;;;;18.78;100.00;101023.63;2614225;31;20042;-58
2021/08/31 08:45:49;;;;;;;9.63;6.47;;;;;;;18.52;100.00;101015.84;2614188;31;20037;-58
2021/08/31 08:48:23;;;;;;;9.55;6.85;;;;;;;18.86;100.00;101025.31;2614086;31;20041;-60
2021/08/31 08:50:54;;;;;;;7.30;6.45;;;;;;;19.06;100.00;101023.53;2615171;31;20035;-56
2021/08/31 08:53:22;;;;;;;8.10;7.07;;;;;;;18.99;100.00;101021.81;2579762;31;2004517;-53
2021/08/31 08:55:49;;;;;;;10.07;7.10;;;;;;;19.08;100.00;101024.38;2616360;31;20041;-57
2021/08/31 08:58:16;;;;;;;9.45;6.90;;;;;;;18.95;100.00;101020.97;2614628;36;20038;-56
2021/08/31 09:01:00;;;;;;;17.90;7.60;;;;;;;19.03;99.08;101026.13;2615285;36;20450;-54
2021/08/31 09:03:30;;;;;;;11.95;7.45;;;;;;;18.46;100.00;101034.03;2578685;36;2004605;-60
2021/08/31 09:06:16;;;;;;;9.32;6.45;;;;;;;18.53;100.00;101032.28;2614867;36;20038;-56
2021/08/31 09:08:58;;;;;;;8.20;6.95;;;;;;;18.84;100.00;101027.91;2615223;31;20022;-55
2021/08/31 09:11:31;;;;;;;11.45;7.65;;;;;;;18.79;100.00;101024.47;2579048;31;2004460;-56
2021/08/31 09:14:20;;;;;;;11.38;7.22;;;;;;;18.78;100.00;101023.63;2614326;36;20590;-58
2021/08/31 09:16:55;;;;;;;7.88;6.68;;;;;;;18.85;100.00;101027.03;2615390;31;20034;-56
2021/08/31 09:19:43;;;;;;;10.07;7.07;;;;;;;18.28;100.00;101027.13;2578701;31;2004568;-59
2021/08/31 09:22:14;;;;;;;11.50;6.95;;;;;;;18.50;100.00;101040.94;2614609;36;20030;-56
2021/08/31 09:25:00;;;;;;;8.07;7.10;;;;;;;18.19;100.00;101028.84;2614605;36;20042;-53
2021/08/31 09:27:40;;;;;;;10.10;7.63;;;;;;;18.14;100.00;101039.22;2578442;31;2004658;-56
2021/08/31 09:30:33;;;;;;;8.27;7.15;;;;;;;18.16;100.00;101037.47;2614654;36;20031;-56
2021/08/31 09:33:07;;;;;;;9.32;7.00;;;;;;;17.98;100.00;101042.66;2580512;31;2004323;-54
2021/08/31 09:35:36;;;;;;;14.93;7.75;;;;;;;17.58;100.00;101046.88;2615889;31;20456;-53
2021/08/31 09:38:09;;;;;;;7.75;6.75;;;;;;;17.83;100.00;101051.28;2614303;31;20042;-53
2021/08/31 09:40:45;;;;;;;11.40;7.30;;;;;;;18.19;100.00;101054.78;2614645;31;20034;-55
2021/08/31 09:43:16;;;;;;;;;;;;;;;18.47;100.00;101050.44;2614601;36;20042;-54
2021/08/31 09:45:46;;;;;;;8.35;6.95;;;;;;;18.72;100.00;101053.88;2615035;31;19950;-55
2021/08/31 09:48:20;;;;;;;9.55;6.97;;;;;;;18.23;100.00;101059.09;2614763;31;20061;-58
2021/08/31 09:50:53;;;;;;;11.48;7.68;;;;;;;18.35;100.00;101050.44;2614815;36;20038;-52
2021/08/31 09:53:23;;;;;;;10.20;7.63;;;;;;;18.65;100.00;101057.34;2614717;36;20511;-54
2021/08/31 09:56:06;;;;;;;10.20;7.68;;;;;;;18.66;100.00;101054.72;2615012;31;20030;-56
2021/08/31 09:58:38;;;;;;;9.40;7.60;;;;;;;18.45;100.00;101060.81;2578330;36;2004409;-55
2021/08/31 10:01:06;;;;;;;8.32;7.45;;;;;;;18.33;100.00;101071.19;2614982;31;20049;-55
2021/08/31 10:03:34;;;;;;;10.10;7.45;;;;;;;18.53;100.00;101069.47;2614557;31;20023;-54
2021/08/31 10:06:03;;;;;;;10.43;7.55;;;;;;;19.00;100.00;101063.34;2614711;36;20558;-54
2021/08/31 10:08:33;;;;;;;8.40;6.80;;;;;;;19.44;97.37;101064.91;2614905;36;20589;-54
2021/08/31 10:11:03;;;;;;;9.35;6.95;;;;;;;19.99;95.09;101072.41;2614770;36;20034;-58
2021/08/31 10:13:38;;;;;;;9.57;7.18;;;;;;;19.56;92.19;101070.03;2615293;31;20046;-52
2021/08/31 10:16:05;;;;;;;8.80;6.45;;;;;;;19.70;92.59;101074.34;2615543;31;20030;-53
2021/08/31 10:18:34;;;;;;;10.75;7.00;;;;;;;19.81;92.71;101075.13;2614404;36;20030;-54
2021/08/31 10:21:08;;;;;;;9.70;7.03;;;;;;;19.74;92.52;101079.50;2615330;31;20566;-54
2021/08/31 10:23:43;;;;;;;7.53;6.70;;;;;;;19.58;93.45;101080.41;2615163;31;20041;-54
2021/08/31 10:26:23;;;;;;;7.65;6.80;;;;;;;19.48;94.14;101073.53;2614453;36;20027;-54
2021/08/31 10:28:51;;;;;;;10.70;7.40;;;;;;;20.40;89.62;101081.63;2616254;31;20034;-58
2021/08/31 10:31:32;;;;;;;9.77;7.20;;;;;;;20.96;87.86;101076.78;2614759;36;20022;-52
2021/08/31 10:33:59;;;;;;;8.45;7.10;;;;;;;20.74;87.84;101089.16;2578617;36;2004792;-56
2021/08/31 10:36:37;;;;;;;10.80;7.47;;;;;;;20.37;89.12;101088.59;2615653;31;20450;-53
2021/08/31 10:39:07;;;;;;;10.20;6.80;;;;;;;20.41;89.59;101087.69;2615145;31;20030;-55
2021/08/31 10:41:43;;;;;;;7.80;6.25;;;;;;;20.95;85.56;101082.88;2614381;36;20034;-54
2021/08/31 10:44:13;;;;;;;8.50;7.43;;;;;;;22.00;82.57;101098.91;2613667;31;20027;-52
2021/08/31 10:46:56;;;;;;;7.50;6.55;;;;;;;23.23;75.11;101089.84;2613609;31;20034;-53
2021/08/31 10:49:23;;;;;;;9.82;6.10;;;;;;;24.14;70.39;101095.69;2578178;36;2004558;-55
2021/08/31 10:52:02;;;;;;;9.30;5.97;;;;;;;24.43;66.82;101101.16;2614956;31;20584;-54
2021/08/31 10:54:46;;;;;;;9.02;5.70;;;;;;;26.80;58.49;101104.56;2578656;36;2004394;-52
2021/08/31 10:57:35;;;;;;;8.60;5.88;;;;;;;27.59;54.40;101106.06;2614368;36;20070;-54
2021/08/31 11:00:14;;;;;;;6.03;5.43;;;;;;;29.31;52.01;101113.84;2578486;36;2004599;-53
2021/08/31 11:02:50;;;;;;;6.03;5.35;;;;;;;28.29;53.88;101115.63;2614594;31;20030;-54
2021/08/31 11:05:20;;;;;;;6.28;5.65;;;;;;;26.90;55.95;101111.22;2614648;31;20038;-50
2021/08/31 11:07:51;;;;;;;5.95;5.43;;;;;;;26.82;52.36;101094.88;2614278;36;20812;-50
2021/08/31 11:10:22;;;;;;;8.77;5.82;;;;;;;26.42;55.82;101109.34;2615234;31;20053;-52
2021/08/31 11:12:50;;;;;;;6.57;5.10;;;;;;;24.62;61.17;101107.63;2614310;36;20030;-57
2021/08/31 11:15:25;;;;;;;6.47;5.82;;;;;;;23.66;64.63;101097.66;2614820;36;20553;-52
2021/08/31 11:17:57;;;;;;;6.70;5.85;;;;;;;23.49;66.58;101107.63;2578269;36;2004393;-54
2021/08/31 11:20:27;;;;;;;7.18;6.45;;;;;;;24.15;66.26;101114.88;2615088;31;20031;-54
2021/08/31 11:23:10;;;;;;;8.27;6.40;;;;;;;23.53;65.03;101123.22;2615690;36;20042;-51
2021/08/31 11:25:44;;;;;;;6.35;5.70;;;;;;;23.53;65.54;101114.50;2616642;31;20420;-54
2021/08/31 11:28:24;;;;;;;8.17;5.97;;;;;;;24.74;60.52;101127.41;2615323;31;20042;-53
2021/08/31 11:30:53;;;;;;;6.50;5.88;;;;;;;23.97;61.91;101126.63;2615272;36;20032;-55
2021/08/31 11:33:22;;;;;;;9.52;6.15;;;;;;;22.68;65.96;101132.66;2615128;31;20041;-53
2021/08/31 11:35:56;;;;;;;6.30;5.53;;;;;;;23.00;66.82;101142.56;2615242;36;20018;-52
2021/08/31 11:38:35;;;;;;;9.30;6.00;;;;;;;22.52;65.45;101138.13;2579274;36;2004632;-54
2021/08/31 11:41:34;;;;;;;10.32;6.15;;;;;;;22.50;65.52;101132.06;2615173;31;20069;-55
2021/08/31 11:44:08;;;;;;;7.15;5.72;;;;;;;23.18;64.34;101142.19;2578880;36;2004476;-55
2021/08/31 11:46:38;;;;;;;8.50;5.82;;;;;;;23.93;62.94;101137.19;2615186;36;20034;-53
2021/08/31 11:49:08;;;;;;;7.28;5.10;;;;;;;23.61;63.51;101136.97;2614986;36;20993;-52
2021/08/31 11:51:36;;;;;;;6.05;5.40;;;;;;;23.57;66.32;101144.91;2615376;31;20022;-49
2021/08/31 11:54:09;;;;;;;7.45;6.18;;;;;;;23.51;66.22;101151.13;2615088;36;20042;-52
2021/08/31 11:56:38;;;;;;;7.78;6.05;;;;;;;23.28;67.34;101143.75;2615380;36;20030;-55
2021/08/31 11:59:06;;;;;;;6.65;5.75;;;;;;;22.18;69.21;101142.16;2615768;31;20035;-55
2021/08/31 12:01:35;;;;;;;6.90;6.30;;;;;;;22.90;66.82;101148.84;2614974;36;20053;-55
2021/08/31 12:04:14;;;;;;;6.75;6.05;;;;;;;23.98;64.94;101149.25;2615146;31;20031;-50
2021/08/31 12:06:45;;;;;;;8.05;6.40;;;;;;;25.07;61.11;101159.72;2615563;31;20860;-51
2021/08/31 12:09:13;;;;;;;7.03;6.00;;;;;;;26.34;56.76;101156.84;2615643;31;20026;-53
2021/08/31 12:11:40;;;;;;;8.52;6.40;;;;;;;26.46;55.21;101162.66;2616134;31;20042;-55
2021/08/31 12:14:08;;;;;;;8.57;6.18;;;;;;;25.80;57.04;101159.47;2616701;31;20030;-50
2021/08/31 12:16:36;;;;;;;8.13;5.78;;;;;;;24.63;59.68;101151.25;2616671;31;20031;-50
2021/08/31 12:19:25;;;;;;;9.45;6.68;;;;;;;24.21;60.88;101153.97;2614435;36;20399;-54
2021/08/31 12:22:14;;;;;;;7.07;5.78;;;;;;;24.52;59.25;101156.75;2615306;36;20038;-50
2021/08/31 12:24:44;;;;;;;6.47;5.60;;;;;;;25.05;57.64;101161.50;2578851;36;2004534;-54
2021/08/31 12:27:14;;;;;;;7.72;5.43;;;;;;;25.75;54.64;101166.59;2615825;31;20442;-55
2021/08/31 12:29:54;;;;;;;6.40;5.80;;;;;;;27.02;52.48;101150.22;2614968;36;20031;-50
2021/08/31 12:32:27;;;;;;;7.38;4.80;;;;;;;27.76;49.99;101152.81;2615692;31;20026;-48
2021/08/31 12:34:56;;;;;;;5.68;5.18;;;;;;;27.48;49.16;101155.63;2579252;36;2004220;-48
2021/08/31 12:37:31;;;;;;;8.27;5.68;;;;;;;25.95;53.72;101160.75;2615356;31;20055;-50
2021/08/31 12:40:14;;;;;;;6.57;5.65;;;;;;;24.47;59.48;101155.16;2579118;31;2004572;-54
2021/08/31 12:42:47;;;;;;;6.72;5.10;;;;;;;24.95;57.93;101160.03;2614922;31;20037;-50
2021/08/31 12:45:27;;;;;;;8.95;5.78;;;;;;;24.43;58.67;101164.84;2614733;36;20038;-51
2021/08/31 12:47:55;;;;;;;8.45;5.32;;;;;;;25.52;55.04;101180.38;2578589;31;2004795;-54
2021/08/31 12:50:24;;;;;;;6.32;5.30;;;;;;;25.50;56.09;101174.28;2615033;36;20035;-54
2021/08/31 12:52:59;;;;;;;6.20;5.32;;;;;;;25.66;54.75;101183.44;2615221;36;20412;-51
2021/08/31 12:55:29;;;;;;;6.45;5.38;;;;;;;24.33;59.51;101173.78;2579319;31;2004733;-51
2021/08/31 12:58:29;;;;;;;9.10;5.70;;;;;;;23.71;60.44;101178.63;2614373;36;20065;-44
2021/08/31 13:01:07;;;;;;;6.72;5.28;;;;;;;22.80;64.81;101163.78;2578342;31;2004357;-49
2021/08/31 13:03:37;;;;;;;7.63;5.18;;;;;;;23.81;63.23;101175.81;2614330;31;20065;-47
2021/08/31 13:06:05;;;;;;;8.02;5.57;;;;;;;24.82;57.42;101183.97;2615224;31;20033;-46
2021/08/31 13:08:32;;;;;;;6.03;4.78;;;;;;;25.75;54.08;101198.06;2614203;36;20034;-45
2021/08/31 13:11:00;;;;;;;5.53;4.95;;;;;;;25.60;54.43;101189.69;2614439;36;20497;-45
2021/08/31 13:13:30;;;;;;;6.32;5.28;;;;;;;27.04;49.35;101195.72;2613743;36;20057;-45
2021/08/31 13:15:58;;;;;;;5.35;4.85;;;;;;;27.36;48.19;101188.47;2614701;31;20054;-44
2021/08/31 13:18:26;;;;;;;8.23;7.43;;;;;;;26.83;50.87;101206.97;2614024;31;20193;-43
2021/08/31 13:20:54;;;;;;;8.25;5.50;;;;;;;26.76;51.96;101197.56;2614137;36;20577;-44
2021/08/31 13:23:21;;;;;;;6.10;5.50;;;;;;;26.71;48.70;101194.22;2613558;36;20505;-44
2021/08/31 13:25:48;;;;;;;6.50;5.10;;;;;;;26.82;48.02;101198.22;2613649;36;20039;-48
2021/08/31 13:28:15;;;;;;;8.57;5.13;;;;;;;26.32;48.85;101192.81;2614039;31;20042;-44
2021/08/31 13:30:46;;;;;;;7.50;6.40;;;;;;;25.70;50.92;101184.19;2614728;31;20065;-45
2021/08/31 13:33:17;;;;;;;5.57;5.00;;;;;;;25.96;51.62;101191.34;2614233;31;20037;-44
2021/08/31 13:35:45;;;;;;;6.15;5.65;;;;;;;26.32;49.56;101186.72;2615505;31;20486;-44
2021/08/31 13:38:12;;;;;;;6.38;5.65;;;;;;;26.21;49.96;101186.19;2613999;31;20442;-49
2021/08/31 13:40:40;;;;;;;6.05;5.35;;;;;;;25.34;52.73;101169.47;2613941;36;20926;-44
2021/08/31 13:43:07;;;;;;;7.50;4.90;;;;;;;25.07;52.63;101181.56;2614345;36;20046;-46
2021/08/31 13:45:37;;;;;;;7.15;5.15;;;;;;;25.42;53.23;101182.34;2614404;31;20038;-44
2021/08/31 13:48:04;;;;;;;7.80;5.15;;;;;;;25.20;53.67;101181.25;2614063;36;20041;-43
2021/08/31 13:50:32;;;;;;;5.85;4.90;;;;;;;25.21;52.85;101183.81;2614333;36;20590;-43
2021/08/31 13:52:59;;;;;;;5.07;4.40;;;;;;;24.73;52.03;101184.19;2614368;31;20038;-44
2021/08/31 13:55:31;;;;;;;4.97;4.47;;;;;;;24.81;50.58;101189.22;2613677;31;20062;-44
2021/08/31 13:57:59;;;;;;;5.05;4.65;;;;;;;25.31;49.88;101190.53;2613368;36;20034;-43
2021/08/31 14:00:26;;;;;;;6.75;4.82;;;;;;;26.28;46.93;101203.47;2614425;36;20801;-44
2021/08/31 14:02:54;;;;;;;4.60;4.22;;;;;;;25.79;49.66;101202.31;2613791;36;20034;-49
2021/08/31 14:05:21;;;;;;;7.63;4.75;;;;;;;27.31;46.49;101199.16;2614194;31;20063;-47
2021/08/31 14:07:48;;;;;;;5.70;4.40;;;;;;;28.97;42.39;101196.22;2613157;36;20558;-44
2021/08/31 14:10:16;;;;;;;6.30;4.68;;;;;;;29.76;39.49;101207.69;2613005;36;20038;-44
2021/08/31 14:12:43;;;;;;;5.15;4.60;;;;;;;29.85;38.63;101201.13;2614374;31;20031;-45
2021/08/31 14:15:10;;;;;;;5.00;4.55;;;;;;;28.82;39.92;101194.22;2613486;36;20143;-44
2021/08/31 14:17:37;;;;;;;8.13;4.40;;;;;;;29.03;39.15;101197.78;2613346;36;20034;-44
2021/08/31 14:20:05;;;;;;;5.20;4.68;;;;;;;30.10;37.22;101195.56;2615222;31;20470;-44
2021/08/31 14:22:32;;;;;;;5.20;4.30;;;;;;;30.44;36.29;101189.50;2614012;31;20573;-44
2021/08/31 14:25:00;;;;;;;4.63;4.22;;;;;;;30.07;37.64;101203.59;2614288;31;20117;-45
2021/08/31 14:27:27;;;;;;;4.95;4.45;;;;;;;29.48;38.87;101188.72;2613343;31;20031;-44
2021/08/31 14:29:54;;;;;;;5.50;5.00;;;;;;;29.22;39.17;101192.53;2613320;36;20038;-44
2021/08/31 14:32:21;;;;;;;4.72;4.32;;;;;;;29.58;37.65;101198.84;2615842;31;20027;-44
2021/08/31 14:34:48;;;;;;;5.03;4.30;;;;;;;29.78;36.57;101208.47;2614089;36;20494;-45
2021/08/31 14:37:15;;;;;;;7.55;5.07;;;;;;;30.33;35.38;101200.59;2613522;31;20045;-44
2021/08/31 14:39:44;;;;;;;6.97;4.95;;;;;;;28.75;35.98;101201.56;2613770;31;20463;-46
2021/08/31 14:42:11;;;;;;;4.35;3.80;;;;;;;30.40;32.35;101211.72;2614396;31;20037;-44
2021/08/31 14:44:39;;;;;;;5.93;4.07;;;;;;;30.06;32.42;101201.91;2613479;36;20065;-44
2021/08/31 14:47:06;;;;;;;6.88;4.55;;;;;;;29.16;34.52;101202.41;2613851;36;20033;-45
2021/08/31 14:49:33;;;;;;;5.00;3.97;;;;;;;29.52;32.37;101199.06;2613356;36;20034;-44
2021/08/31 14:52:01;;;;;;;5.07;4.25;;;;;;;27.97;37.50;101195.91;2612629;36;20232;-44
2021/08/31 14:54:30;;;;;;;4.03;3.70;;;;;;;26.77;37.94;101194.03;2612401;36;20081;-44
2021/08/31 14:56:57;;;;;;;4.85;4.07;;;;;;;27.15;37.16;101187.50;2613643;36;20038;-45
2021/08/31 14:59:24;;;;;;;10.40;4.60;;;;;;;27.72;36.55;101191.56;2613587;36;20057;-44
2021/08/31 15:01:53;;;;;;;4.65;3.97;;;;;;;28.08;35.44;101202.44;2613765;31;20038;-44
2021/08/31 15:04:21;;;;;;;4.60;4.18;;;;;;;27.30;36.99;101192.19;2615777;31;20474;-44
2021/08/31 15:06:48;;;;;;;4.93;3.60;;;;;;;27.95;35.85;101201.22;2613565;36;20054;-44
2021/08/31 15:09:15;;;;;;;4.28;3.88;;;;;;;28.78;34.19;101211.94;2614229;36;20605;-45
2021/08/31 15:11:42;;;;;;;4.07;3.42;;;;;;;27.68;35.08;101206.56;2614295;31;20126;-44
2021/08/31 15:14:11;;;;;;;5.15;3.70;;;;;;;27.38;35.85;101205.94;2614485;31;20027;-44
2021/08/31 15:16:39;;;;;;;5.30;3.80;;;;;;;25.12;39.41;101202.44;2613453;31;20037;-47
2021/08/31 15:19:08;;;;;;;3.92;3.53;;;;;;;24.53;41.00;101200.38;2614284;31;20037;-47
2021/08/31 15:21:35;;;;;;;7.90;4.47;;;;;;;23.22;44.21;101198.75;2614414;36;20030;-44
2021/08/31 15:24:04;;;;;;;8.15;3.83;;;;;;;23.27;45.43;101201.28;2616555;31;20426;-45
2021/08/31 15:26:34;;;;;;;4.20;3.35;;;;;;;22.60;46.34;101211.97;2614816;36;20034;-44
2021/08/31 15:29:01;;;;;;;4.88;3.20;;;;;;;21.86;48.13;101199.09;2614671;36;20418;-47
2021/08/31 15:31:30;;;;;;;4.40;3.30;;;;;;;22.09;46.46;101204.00;2614538;36;20034;-44
2021/08/31 15:33:59;;;;;;;6.47;3.63;;;;;;;22.23;47.42;101197.72;2614848;36;20075;-44
2021/08/31 15:36:29;;;;;;;4.43;3.75;;;;;;;22.07;46.60;101199.66;2614584;31;20335;-44
2021/08/31 15:38:58;;;;;;;3.90;3.53;;;;;;;21.92;49.17;101195.53;2614070;36;20547;-44
2021/08/31 15:41:26;;;;;;;5.07;3.35;;;;;;;21.83;49.11;101193.91;2614943;31;20451;-44
2021/08/31 15:43:53;;;;;;;7.20;3.80;;;;;;;21.55;49.80;101189.91;2615227;31;20038;-46
2021/08/31 15:46:20;;;;;;;4.25;3.13;;;;;;;21.37;50.88;101190.09;2614383;36;20034;-43
2021/08/31 15:48:48;;;;;;;4.57;3.83;;;;;;;21.34;51.44;101194.44;2614949;31;20030;-43
2021/08/31 15:51:17;;;;;;;4.30;3.63;;;;;;;21.46;50.96;101185.66;2614621;36;20038;-48
2021/08/31 15:53:45;;;;;;;4.05;3.65;;;;;;;21.07;50.55;101190.34;2617145;31;20030;-44
2021/08/31 15:56:12;;;;;;;6.60;3.75;;;;;;;21.14;51.98;101201.59;2614614;36;20027;-45
2021/08/31 15:58:39;;;;;;;4.18;3.55;;;;;;;21.11;51.24;101201.59;2614853;36;20451;-47
2021/08/31 16:01:06;;;;;;;4.10;3.58;;;;;;;20.73;52.41;101207.16;2614638;36;20132;-45
2021/08/31 16:03:34;;;;;;;5.53;3.55;;;;;;;20.98;53.50;101215.63;2614886;31;20034;-43
2021/08/31 16:06:03;;;;;;;3.90;3.25;;;;;;;21.06;52.52;101201.66;2614337;36;20038;-47
2021/08/31 16:08:30;;;;;;;4.50;3.35;;;;;;;20.54;53.24;101209.03;2615638;31;20030;-43
2021/08/31 16:11:08;;;;;;;5.70;3.53;;;;;;;20.71;53.81;101211.53;2613962;36;20034;-43
2021/08/31 16:13:40;;;;;;;4.97;3.65;;;;;;;20.42;53.75;101206.47;2614449;36;20042;-43
2021/08/31 16:16:09;;;;;;;3.97;3.28;;;;;;;20.58;54.75;101203.81;2616455;31;20432;-45
2021/08/31 16:18:38;;;;;;;5.35;4.07;;;;;;;20.35;55.87;101200.47;2614221;36;20078;-45
2021/08/31 16:21:07;;;;;;;4.40;3.72;;;;;;;20.15;56.13;101200.56;2615313;31;20034;-45
2021/08/31 16:23:35;;;;;;;8.57;3.83;;;;;;;19.74;56.92;101198.19;2615608;31;20115;-43
2021/08/31 16:26:06;;;;;;;4.20;3.80;;;;;;;20.05;56.78;101198.88;2615202;31;20037;-43
2021/08/31 16:28:36;;;;;;;4.53;3.90;;;;;;;19.84;57.34;101205.94;2615206;31;20167;-44
2021/08/31 16:31:04;;;;;;;6.43;3.80;;;;;;;19.67;58.24;101202.53;2615093;36;20446;-44
2021/08/31 16:33:33;;;;;;;4.95;3.85;;;;;;;19.67;57.87;101209.47;2614628;36;20585;-43
2021/08/31 16:36:03;;;;;;;5.05;3.75;;;;;;;19.65;58.70;101200.81;2614060;36;20026;-45
2021/08/31 16:38:31;;;;;;;4.85;3.72;;;;;;;19.57;58.40;101206.88;2615228;31;20061;-44
2021/08/31 16:40:58;;;;;;;4.68;3.70;;;;;;;19.45;60.31;101216.41;2614153;36;20035;-44
2021/08/31 16:43:27;;;;;;;4.30;3.78;;;;;;;19.13;60.43;101206.94;2614102;31;20038;-44
2021/08/31 16:45:54;;;;;;;4.47;3.72;;;;;;;19.18;60.77;101214.72;2614835;31;20065;-44
2021/08/31 16:48:21;;;;;;;5.03;3.60;;;;;;;19.30;61.30;101217.31;2614932;31;20555;-46
2021/08/31 16:50:50;;;;;;;5.07;3.58;;;;;;;19.05;61.55;101214.75;2614223;36;20454;-44
2021/08/31 16:53:17;;;;;;;5.90;4.05;;;;;;;19.21;61.20;101220.78;2615452;31;20049;-44
2021/08/31 16:55:46;;;;;;;5.30;4.03;;;;;;;18.90;62.13;101229.47;2614460;36;20073;-44
2021/08/31 16:58:14;;;;;;;5.28;3.85;;;;;;;18.97;61.61;101224.28;2614902;31;20031;-44
2021/08/31 17:00:42;;;;;;;5.25;4.20;;;;;;;18.90;60.22;101221.69;2614730;31;20026;-44
2021/08/31 17:03:11;;;;;;;5.45;4.35;;;;;;;18.85;61.56;101226.00;2615255;31;20054;-46
2021/08/31 17:05:39;;;;;;;5.20;3.95;;;;;;;18.69;61.85;101228.59;2614182;36;20057;-44
2021/08/31 17:08:06;;;;;;;4.72;4.13;;;;;;;18.58;61.69;101241.53;2613206;31;20042;-44
2021/08/31 17:10:35;;;;;;;5.95;4.13;;;;;;;18.49;61.14;101235.47;2613855;36;20035;-46
2021/08/31 17:13:04;;;;;;;5.32;3.90;;;;;;;18.49;61.31;101244.09;2615058;31;20027;-44
2021/08/31 17:15:31;;;;;;;5.32;4.07;;;;;;;18.55;62.48;101246.69;2614452;31;20027;-44
2021/08/31 17:18:02;;;;;;;6.35;4.13;;;;;;;18.46;62.44;101244.09;2614356;36;20568;-44
2021/08/31 17:20:30;;;;;;;7.47;4.32;;;;;;;18.25;62.31;101241.44;2614422;31;20585;-44
2021/08/31 17:22:58;;;;;;;5.32;4.03;;;;;;;18.14;61.40;101249.19;2614264;36;20610;-44
2021/08/31 17:25:26;;;;;;;7.13;3.50;;;;;;;18.24;61.96;101250.06;2614841;31;20034;-45
2021/08/31 17:27:53;;;;;;;4.97;3.90;;;;;;;18.01;63.71;101243.09;2613671;31;20061;-46
2021/08/31 17:30:21;;;;;;;5.82;4.00;;;;;;;17.88;63.42;101256.84;2613922;36;20038;-45
2021/08/31 17:32:51;;;;;;;5.85;4.35;;;;;;;17.91;64.07;101262.03;2614580;31;20030;-44
2021/08/31 17:35:18;;;;;;;7.10;4.50;;;;;;;17.78;64.46;101258.53;2614218;36;20042;-44
2021/08/31 17:37:45;;;;;;;7.60;4.50;;;;;;;17.67;64.42;101264.50;2614132;36;20034;-44
2021/08/31 17:40:14;;;;;;;7.15;4.63;;;;;;;17.72;65.27;101268.81;2614180;31;20030;-44
2021/08/31 17:42:41;;;;;;;7.00;4.72;;;;;;;17.50;65.68;101261.78;2614935;31;20514;-44
2021/08/31 17:45:09;;;;;;;5.82;4.15;;;;;;;17.72;66.18;101273.16;2614112;31;20244;-44
2021/08/31 17:47:37;;;;;;;6.00;4.20;;;;;;;17.63;65.94;101268.78;2614061;31;20427;-45
2021/08/31 17:50:05;;;;;;;4.65;4.00;;;;;;;17.44;67.39;101272.97;2613510;31;20034;-45
2021/08/31 17:52:35;;;;;;;8.02;4.07;;;;;;;17.27;68.18;101274.56;2613205;36;20034;-46
2021/08/31 17:55:12;;;;;;;5.45;4.32;;;;;;;17.26;69.28;101275.44;2615255;31;20042;-44
2021/08/31 17:57:43;;;;;;;6.28;3.83;;;;;;;17.12;68.33;101277.91;2613577;31;20034;-44
2021/08/31 18:00:11;;;;;;;6.72;3.88;;;;;;;17.34;68.00;101286.72;2613687;36;20042;-44
2021/08/31 18:02:41;;;;;;;7.35;4.43;;;;;;;17.20;68.53;101296.97;2613555;36;20042;-45
2021/08/31 18:05:10;;;;;;;6.00;4.63;;;;;;;17.28;67.84;101291.81;2615509;31;20853;-44
2021/08/31 18:07:39;;;;;;;6.03;3.80;;;;;;;17.18;69.70;101293.47;2613596;31;20057;-45
2021/08/31 18:10:09;;;;;;;4.88;4.20;;;;;;;16.95;70.32;101303.63;2614265;31;20033;-48
2021/08/31 18:12:36;;;;;;;7.07;4.20;;;;;;;16.72;71.37;101303.41;2613802;36;20559;-47
2021/08/31 18:15:04;;;;;;;8.15;4.38;;;;;;;16.82;71.10;101303.50;2614745;31;20034;-44
2021/08/31 18:17:33;;;;;;;7.07;4.50;;;;;;;16.73;71.95;101307.75;2614078;31;20455;-46
2021/08/31 18:20:07;;;;;;;6.40;3.85;;;;;;;16.78;71.88;101310.38;2614904;31;20042;-44
2021/08/31 18:22:35;;;;;;;6.00;4.53;;;;;;;16.71;71.94;101316.28;2614449;31;20531;-44
2021/08/31 18:25:04;;;;;;;6.68;4.70;;;;;;;16.55;71.64;101320.44;2614664;31;20547;-44
2021/08/31 18:27:31;;;;;;;6.82;5.35;;;;;;;16.61;72.05;101320.50;2614565;31;20031;-43
2021/08/31 18:30:00;;;;;;;12.18;7.50;;;;;;;16.45;71.52;101327.19;2615072;36;20480;-44
2021/08/31 18:32:28;;;;;;;10.07;7.68;;;;;;;16.37;72.08;101326.25;2614830;36;20030;-46